createdAt,value
2018-01-19T00:01:59.291Z,99389.23
2018-01-19T00:04:26.153Z,99388.99
2018-01-19T00:06:53.600Z,99390.02
2018-01-19T00:09:21.013Z,99389.89
2018-01-19T00:11:47.868Z,99394.39
2018-01-19T00:14:14.846Z,99391.33
2018-01-19T00:16:43.084Z,99399.02
2018-01-19T00:19:11.254Z,99397.55
2018-01-19T00:21:38.881Z,99402.22
2018-01-19T00:24:05.745Z,99392.30
2018-01-19T00:26:33.607Z,99397.98
2018-01-19T00:29:00.483Z,99401.80
2018-01-19T00:31:27.332Z,99399.17
2018-01-19T00:33:54.200Z,99404.06
2018-01-19T00:36:21.027Z,99398.15
2018-01-19T00:38:47.891Z,99400.52
2018-01-19T00:41:14.825Z,99403.48
2018-01-19T00:43:41.784Z,99399.36
2018-01-19T00:46:08.664Z,99398.92
2018-01-19T00:48:35.548Z,99397.55
2018-01-19T00:51:02.405Z,99401.26
2018-01-19T00:53:29.318Z,99409.02
2018-01-19T00:55:56.192Z,99408.59
2018-01-19T00:58:23.072Z,99416.16
2018-01-19T01:00:49.940Z,99428.37
2018-01-19T01:03:16.855Z,99426.02
2018-01-19T01:05:43.779Z,99433.00
2018-01-19T01:08:11.409Z,99435.58
2018-01-19T01:10:38.317Z,99443.27
2018-01-19T01:13:05.215Z,99445.70
2018-01-19T01:15:32.026Z,99456.05
2018-01-19T01:17:59.686Z,99458.08
2018-01-19T01:20:26.567Z,99455.46
2018-01-19T01:22:53.462Z,99462.09
2018-01-19T01:25:20.354Z,99459.08
2018-01-19T01:27:47.208Z,99459.53
2018-01-19T01:30:14.805Z,99457.73
2018-01-19T01:32:41.670Z,99448.56
2018-01-19T01:35:08.524Z,99452.02
2018-01-19T01:37:35.413Z,99457.30
2018-01-19T01:40:04.415Z,99458.53
2018-01-19T01:42:31.345Z,99458.73
2018-01-19T01:44:58.989Z,99463.72
2018-01-19T01:47:25.850Z,99458.20
2018-01-19T01:49:52.714Z,99458.53
2018-01-19T01:52:19.574Z,99458.92
2018-01-19T01:54:46.482Z,99452.36
2018-01-19T01:57:14.077Z,99450.70
2018-01-19T01:59:40.930Z,99446.59
2018-01-19T02:02:07.760Z,99450.11
2018-01-19T02:04:34.700Z,99453.80
2018-01-19T02:07:01.544Z,99456.27
2018-01-19T02:09:28.353Z,99461.97
2018-01-19T02:11:55.197Z,99461.50
2018-01-19T02:14:22.125Z,99459.10
2018-01-19T02:16:48.992Z,99448.56
2018-01-19T02:19:19.316Z,99448.66
2018-01-19T02:21:46.184Z,99454.20
2018-01-19T02:24:13.059Z,99457.34
2018-01-19T02:26:39.875Z,99455.79
2018-01-19T02:29:07.457Z,99447.67
2018-01-19T02:31:34.290Z,99448.09
2018-01-19T02:34:01.134Z,99454.54
2018-01-19T02:36:28.019Z,99453.91
2018-01-19T02:38:54.886Z,99452.73
2018-01-19T02:41:21.698Z,99454.48
2018-01-19T02:43:48.600Z,99457.95
2018-01-19T02:46:15.498Z,99454.64
2018-01-19T02:48:42.378Z,99455.33
2018-01-19T02:51:09.262Z,99455.68
2018-01-19T02:53:36.204Z,99454.56
2018-01-19T02:56:03.120Z,99462.80
2018-01-19T02:58:30.013Z,99460.28
2018-01-19T03:00:56.897Z,99465.87
2018-01-19T03:03:25.396Z,99466.95
2018-01-19T03:06:05.506Z,99470.28
2018-01-19T03:08:34.405Z,99477.39
2018-01-19T03:11:02.931Z,99473.81
2018-01-19T03:13:31.475Z,99474.31
2018-01-19T03:15:59.419Z,99480.09
2018-01-19T03:18:28.653Z,99489.03
2018-01-19T03:21:01.004Z,99491.01
2018-01-19T03:23:28.231Z,99490.03
2018-01-19T03:25:55.140Z,99492.09
2018-01-19T03:28:21.988Z,99494.30
2018-01-19T03:30:48.831Z,99498.27
2018-01-19T03:33:15.698Z,99494.34
2018-01-19T03:35:42.589Z,99498.13
2018-01-19T03:38:09.479Z,99492.11
2018-01-19T03:40:36.333Z,99493.99
2018-01-19T03:43:03.180Z,99495.70
2018-01-19T03:45:30.059Z,99498.13
2018-01-19T03:47:56.895Z,99502.41
2018-01-19T03:50:24.024Z,99500.58
2018-01-19T03:52:51.529Z,99504.14
2018-01-19T03:55:18.947Z,99513.02
2018-01-19T03:57:46.085Z,99514.86
2018-01-19T04:00:13.961Z,99513.77
2018-01-19T04:02:41.514Z,99518.16
2018-01-19T04:05:08.756Z,99525.43
2018-01-19T04:07:37.400Z,99523.91
2018-01-19T04:10:05.634Z,99515.22
2018-01-19T04:12:33.123Z,99523.19
2018-01-19T04:15:09.362Z,99522.58
2018-01-19T04:17:36.258Z,99532.51
2018-01-19T04:20:03.215Z,99539.89
2018-01-19T04:22:30.069Z,99538.99
2018-01-19T04:24:56.890Z,99536.06
2018-01-19T04:27:23.781Z,99541.55
2018-01-19T04:29:50.656Z,99555.91
2018-01-19T04:32:17.642Z,99551.08
2018-01-19T04:34:44.540Z,99560.91
2018-01-19T04:37:11.446Z,99561.39
2018-01-19T04:39:38.354Z,99564.11
2018-01-19T04:42:05.212Z,99569.37
2018-01-19T04:44:32.090Z,99572.63
2018-01-19T04:46:59.740Z,99572.80
2018-01-19T04:49:26.581Z,99574.25
2018-01-19T04:51:56.446Z,99577.33
2018-01-19T04:54:26.279Z,99584.28
2018-01-19T04:56:54.747Z,99583.55
2018-01-19T04:59:27.101Z,99587.94
2018-01-19T05:01:54.825Z,99588.31
2018-01-19T05:04:23.975Z,99586.40
2018-01-19T05:06:52.188Z,99585.36
2018-01-19T05:09:28.580Z,99595.13
2018-01-19T05:11:57.683Z,99592.66
2018-01-19T05:14:26.193Z,99594.77
2018-01-19T05:16:53.622Z,99598.52
2018-01-19T05:22:07.678Z,99609.64
2018-01-19T05:24:37.918Z,99607.13
2018-01-19T05:29:38.077Z,99605.18
2018-01-19T05:32:06.709Z,99614.80
2018-01-19T05:34:55.697Z,99611.11
2018-01-19T06:06:38.103Z,99649.78
2018-01-19T06:09:05.032Z,99654.66
2018-01-19T06:11:32.606Z,99657.63
2018-01-19T06:13:59.455Z,99662.52
2018-01-19T06:16:26.356Z,99664.67
2018-01-19T06:18:53.203Z,99681.30
2018-01-19T06:21:20.105Z,99679.85
2018-01-19T06:23:46.957Z,99690.28
2018-01-19T06:26:13.746Z,99696.92
2018-01-19T06:28:40.531Z,99697.27
2018-01-19T06:31:07.314Z,99702.80
2018-01-19T06:33:34.189Z,99706.13
2018-01-19T06:36:01.006Z,99708.73
2018-01-19T06:38:27.859Z,99715.64
2018-01-19T06:40:54.681Z,99715.19
2018-01-19T06:43:21.488Z,99721.66
2018-01-19T06:45:48.268Z,99719.13
2018-01-19T06:48:15.882Z,99731.60
2018-01-19T06:50:42.721Z,99738.41
2018-01-19T06:53:10.072Z,99739.73
2018-01-19T06:55:37.662Z,99746.84
2018-01-19T06:58:04.509Z,99746.80
2018-01-19T07:03:31.910Z,99762.45
2018-01-19T07:05:59.458Z,99765.23
2018-01-19T07:08:26.302Z,99769.88
2018-01-19T07:10:53.176Z,99774.36
2018-01-19T07:13:20.010Z,99779.45
2018-01-19T07:15:46.872Z,99782.13
2018-01-19T07:18:13.668Z,99787.51
2018-01-19T07:20:40.559Z,99786.93
2018-01-19T07:23:08.093Z,99791.48
2018-01-19T07:25:34.917Z,99797.73
2018-01-19T07:28:01.729Z,99801.37
2018-01-19T07:30:28.535Z,99801.27
2018-01-19T07:32:55.380Z,99811.30
2018-01-19T07:35:22.947Z,99816.36
2018-01-19T07:37:50.539Z,99821.95
2018-01-19T07:40:17.396Z,99828.70
2018-01-19T07:45:45.326Z,99837.48
2018-01-19T07:48:12.165Z,99835.14
2018-01-19T07:50:39.870Z,99836.39
2018-01-19T07:53:06.671Z,99842.41
2018-01-19T07:55:33.462Z,99848.65
2018-01-19T07:58:01.059Z,99846.16
2018-01-19T08:00:28.825Z,99843.55
2018-01-19T08:02:55.631Z,99849.52
2018-01-19T08:05:22.414Z,99853.28
2018-01-19T08:07:49.227Z,99864.97
2018-01-19T08:10:16.018Z,99864.97
2018-01-19T08:12:42.850Z,99867.45
2018-01-19T08:15:09.660Z,99872.74
2018-01-19T08:23:38.233Z,99887.55
2018-01-19T08:26:05.042Z,99885.23
2018-01-19T08:28:31.914Z,99884.70
2018-01-19T08:30:58.775Z,99890.59
2018-01-19T08:33:25.626Z,99888.70
2018-01-19T08:35:52.442Z,99896.77
2018-01-19T08:38:19.308Z,99892.55
2018-01-19T08:40:46.152Z,99905.11
2018-01-19T08:43:13.734Z,99904.98
2018-01-19T08:45:40.536Z,99912.97
2018-01-19T08:48:07.361Z,99918.53
2018-01-19T08:50:34.197Z,99922.88
2018-01-19T09:29:04.917Z,99956.52
2018-01-19T09:31:31.733Z,99963.92
2018-01-19T09:33:58.546Z,99964.09
2018-01-19T09:36:25.346Z,99960.03
2018-01-19T09:38:52.239Z,99966.16
2018-01-19T09:41:19.786Z,99973.00
2018-01-19T09:43:46.640Z,99976.42
2018-01-19T09:46:13.512Z,99978.73
2018-01-19T09:48:40.312Z,99979.34
2018-01-19T09:51:07.149Z,99983.53
2018-01-19T09:53:34.705Z,99986.95
2018-01-19T09:56:01.536Z,99987.31
2018-01-19T09:58:28.337Z,99998.13
2018-01-19T10:00:55.217Z,99996.83
2018-01-19T10:03:22.812Z,100003.28
2018-01-19T10:05:49.668Z,100002.70
2018-01-19T10:08:17.332Z,100007.66
2018-01-19T10:10:44.948Z,100012.22
2018-01-19T10:13:11.775Z,100010.61
2018-01-19T10:15:39.436Z,100013.26
2018-01-19T10:18:06.211Z,100016.53
2018-01-19T10:20:33.926Z,100010.55
2018-01-19T10:23:00.817Z,100010.85
2018-01-19T10:25:27.711Z,100015.14
2018-01-19T10:27:55.781Z,100015.36
2018-01-19T10:30:22.734Z,100014.91
2018-01-19T10:32:49.599Z,100024.20
2018-01-19T10:35:16.428Z,100024.87
2018-01-19T10:37:43.231Z,100028.73
2018-01-19T10:40:10.053Z,100023.49
2018-01-19T10:42:36.854Z,100030.48
2018-01-19T10:45:03.758Z,100024.38
2018-01-19T10:47:30.545Z,100030.95
2018-01-19T10:49:57.392Z,100033.21
2018-01-19T10:52:24.305Z,100030.55
2018-01-19T10:54:51.958Z,100028.28
2018-01-19T10:57:18.858Z,100023.98
2018-01-19T10:59:46.530Z,100024.67
2018-01-19T11:02:14.113Z,100031.11
2018-01-19T11:04:41.679Z,100023.19
2018-01-19T11:07:08.518Z,100016.78
2018-01-19T11:09:36.049Z,100006.48
2018-01-19T11:12:02.995Z,100012.94
2018-01-19T11:14:30.673Z,100014.38
2018-01-19T11:16:57.564Z,100005.59
2018-01-19T11:19:24.495Z,100002.81
2018-01-19T11:21:52.209Z,100001.30
2018-01-19T11:24:19.080Z,100000.27
2018-01-19T11:26:45.929Z,99998.94
2018-01-19T11:29:12.855Z,100004.13
2018-01-19T11:31:39.774Z,99998.52
2018-01-19T11:34:06.629Z,99998.80
2018-01-19T11:36:33.510Z,99998.44
2018-01-19T11:39:00.384Z,100003.20
2018-01-19T11:41:27.306Z,100002.12
2018-01-19T11:43:54.237Z,100010.35
2018-01-19T11:46:21.168Z,100003.34
2018-01-19T11:48:48.098Z,99999.30
2018-01-19T11:51:15.055Z,100003.19
2018-01-19T11:53:42.022Z,99995.78
2018-01-19T11:56:08.999Z,100000.84
2018-01-19T11:58:35.896Z,99988.02
2018-01-19T12:01:02.891Z,99996.13
2018-01-19T12:03:30.596Z,99997.49
2018-01-19T12:05:57.632Z,99995.59
2018-01-19T12:08:24.639Z,99999.41
2018-01-19T12:10:56.633Z,99994.95
2018-01-19T12:13:23.721Z,99991.80
2018-01-19T12:15:50.582Z,99991.25
2018-01-19T12:18:18.348Z,99987.80
2018-01-19T12:20:45.212Z,99993.04
2018-01-19T12:23:12.101Z,99993.11
2018-01-19T12:25:39.707Z,99989.84
2018-01-19T12:28:06.537Z,99993.80
2018-01-19T12:30:34.206Z,99989.94
2018-01-19T12:33:01.970Z,99984.80
2018-01-19T12:35:28.892Z,99983.77
2018-01-19T12:37:55.874Z,99986.44
2018-01-19T12:40:23.051Z,99982.53
2018-01-19T12:42:50.150Z,99984.18
2018-01-19T12:45:17.251Z,99981.84
2018-01-19T12:47:44.167Z,99982.91
2018-01-19T12:50:11.301Z,99972.71
2018-01-19T12:52:38.394Z,99977.59
2018-01-19T12:55:05.274Z,99981.11
2018-01-19T12:57:32.364Z,99984.14
2018-01-19T12:59:59.308Z,99987.27
2018-01-19T13:02:26.311Z,99985.70
2018-01-19T13:04:53.289Z,99976.85
2018-01-19T13:07:20.257Z,99980.97
2018-01-19T13:09:47.354Z,99984.51
2018-01-19T13:12:14.612Z,99985.48
2018-01-19T13:14:41.848Z,99983.48
2018-01-19T13:17:09.099Z,99981.53
2018-01-19T13:19:37.043Z,99979.30
2018-01-19T13:22:04.107Z,99987.13
2018-01-19T13:24:31.347Z,99984.59
2018-01-19T13:26:58.553Z,99993.52
2018-01-19T13:29:26.052Z,99990.11
2018-01-19T13:31:54.049Z,99999.57
2018-01-19T13:34:21.251Z,99995.80
2018-01-19T13:36:49.926Z,99997.05
2018-01-19T13:39:17.702Z,100002.70
2018-01-19T13:41:45.381Z,100000.80
2018-01-19T13:44:13.150Z,100003.41
2018-01-19T13:46:40.173Z,99993.87
2018-01-19T13:49:07.146Z,100000.05
2018-01-19T13:51:34.098Z,100003.05
2018-01-19T13:54:01.858Z,100005.20
2018-01-19T13:56:28.759Z,100001.80
2018-01-19T13:58:55.804Z,99999.13
2018-01-19T14:01:22.934Z,99998.70
2018-01-19T14:03:50.393Z,99999.20
2018-01-19T14:06:18.622Z,100001.31
2018-01-19T14:08:46.644Z,99997.03
2018-01-19T14:11:13.899Z,99995.55
2018-01-19T14:13:42.210Z,99995.97
2018-01-19T14:16:10.787Z,99998.09
2018-01-19T14:18:39.908Z,99994.25
2018-01-19T14:21:07.197Z,99996.48
2018-01-19T14:23:34.987Z,100008.50
2018-01-19T14:26:02.448Z,99997.70
2018-01-19T14:28:29.721Z,100004.22
2018-01-19T14:30:56.781Z,100009.30
2018-01-19T14:33:24.887Z,100010.76
2018-01-19T14:35:51.991Z,100007.63
2018-01-19T14:38:19.737Z,100007.38
2018-01-19T14:40:46.694Z,100012.45
2018-01-19T14:43:13.756Z,100013.09
2018-01-19T14:45:40.678Z,100009.56
2018-01-19T14:48:07.658Z,100009.61
2018-01-19T14:50:34.591Z,100015.07
2018-01-19T14:53:01.448Z,100021.34
2018-01-19T14:55:29.040Z,100018.33
2018-01-19T14:57:56.646Z,100021.39
2018-01-19T15:00:23.635Z,100018.12
2018-01-19T15:02:50.435Z,100029.69
2018-01-19T15:05:18.002Z,100047.79
2018-01-19T15:07:44.821Z,100055.53
2018-01-19T15:10:11.684Z,100071.66
2018-01-19T15:12:38.491Z,100066.34
2018-01-19T15:15:05.316Z,100059.72
2018-01-19T15:17:32.138Z,100061.10
2018-01-19T15:19:59.007Z,100052.97
2018-01-19T15:22:25.829Z,100045.27
2018-01-19T15:24:52.630Z,100035.16
2018-01-19T15:27:19.661Z,100031.84
2018-01-19T15:29:46.520Z,100026.87
2018-01-19T15:32:13.360Z,100017.27
2018-01-19T15:34:40.146Z,100017.59
2018-01-19T15:37:06.944Z,100023.20
2018-01-19T15:39:33.760Z,100015.66
2018-01-19T15:42:00.576Z,100009.34
2018-01-19T15:44:27.387Z,100028.36
2018-01-19T15:46:54.199Z,100025.83
2018-01-19T15:49:21.028Z,100025.77
2018-01-19T15:51:47.828Z,100023.93
2018-01-19T15:54:14.634Z,100016.61
2018-01-19T15:56:42.618Z,100013.19
2018-01-19T15:59:09.526Z,100008.34
2018-01-19T16:01:37.088Z,100007.81
2018-01-19T16:04:03.946Z,100001.09
2018-01-19T16:06:30.808Z,100002.30
2018-01-19T16:08:57.649Z,99997.58
2018-01-19T16:11:25.453Z,99993.39
2018-01-19T16:13:52.340Z,99994.79
2018-01-19T16:16:19.235Z,99989.75
2018-01-19T16:18:46.778Z,99993.00
2018-01-19T16:21:13.666Z,99990.39
2018-01-19T16:23:40.587Z,99994.63
2018-01-19T16:26:07.548Z,99997.33
2018-01-19T16:28:34.453Z,99985.69
2018-01-19T16:31:01.384Z,99988.00
2018-01-19T16:33:28.287Z,99990.64
2018-01-19T16:35:55.206Z,99992.52
2018-01-19T16:38:22.209Z,99993.52
2018-01-19T16:40:49.170Z,99987.63
2018-01-19T16:43:16.108Z,99991.00
2018-01-19T16:45:43.044Z,99985.69
2018-01-19T16:48:09.990Z,99981.83
2018-01-19T16:50:37.631Z,99977.31
2018-01-19T16:53:04.566Z,99982.20
2018-01-19T16:55:31.583Z,99978.91
2018-01-19T16:57:59.211Z,99973.68
2018-01-19T17:00:26.204Z,99976.13
2018-01-19T17:02:53.605Z,99981.52
2018-01-19T17:08:10.415Z,99985.77
2018-01-19T17:10:37.477Z,99997.81
2018-01-19T17:13:08.667Z,99993.52
2018-01-19T17:15:35.737Z,99999.24
2018-01-19T17:18:02.708Z,99998.19
2018-01-19T17:20:30.053Z,100000.05
2018-01-19T17:22:58.503Z,100006.51
2018-01-19T17:25:25.643Z,100012.12
2018-01-19T17:27:53.611Z,100010.39
2018-01-19T17:30:24.573Z,100014.77
2018-01-19T17:32:51.755Z,100014.69
2018-01-19T17:35:18.899Z,100018.41
2018-01-19T17:37:46.290Z,100012.81
2018-01-19T17:40:13.762Z,100012.76
2018-01-19T17:42:41.010Z,100016.09
2018-01-19T17:45:08.125Z,100013.82
2018-01-19T17:47:35.454Z,100019.16
2018-01-19T17:50:03.381Z,100019.36
2018-01-19T17:52:31.279Z,100015.70
2018-01-19T17:54:58.519Z,100018.23
2018-01-19T17:57:26.444Z,100019.81
2018-01-19T17:59:53.507Z,100017.68
2018-01-19T18:02:20.704Z,100015.38
2018-01-19T18:04:47.962Z,100015.62
2018-01-19T18:07:14.928Z,100012.20
2018-01-19T18:09:42.013Z,100010.54
2018-01-19T18:12:09.418Z,100009.34
2018-01-19T18:14:36.242Z,100012.98
2018-01-19T18:17:03.151Z,100015.23
2018-01-19T18:19:30.734Z,100012.61
2018-01-19T18:21:57.738Z,100009.38
2018-01-19T18:24:24.597Z,100012.30
2018-01-19T19:03:06.558Z,100022.69
2018-01-19T19:05:33.432Z,100023.69
2018-01-19T19:08:00.366Z,100017.39
2018-01-19T19:10:27.470Z,100008.28
2018-01-19T19:15:35.386Z,100018.41
2018-01-19T19:18:02.744Z,100021.81
2018-01-19T19:20:30.870Z,100023.06
2018-01-19T19:22:57.835Z,100016.37
2018-01-19T19:25:25.236Z,100014.48
2018-01-19T19:27:52.897Z,100018.41
2018-01-19T19:30:19.903Z,100012.22
2018-01-19T19:32:47.476Z,100007.01
2018-01-19T19:35:14.923Z,100006.94
2018-01-19T19:37:42.008Z,100012.28
2018-01-19T19:40:11.176Z,100016.30
2018-01-19T19:42:40.172Z,100016.05
2018-01-19T19:45:08.920Z,100011.53
2018-01-19T20:05:48.197Z,100021.47
2018-01-19T20:08:17.870Z,100015.77
2018-01-19T20:10:46.903Z,100016.69
2018-01-19T20:13:15.790Z,100014.39
2018-01-19T20:15:45.842Z,100011.02
2018-01-19T20:18:14.884Z,100010.77
2018-01-19T20:20:43.612Z,100011.38
2018-01-19T20:23:12.548Z,100009.52
2018-01-19T20:25:41.492Z,100015.04
2018-01-19T20:28:10.445Z,100015.57
2018-01-19T20:30:39.222Z,100018.71
2018-01-19T20:33:08.165Z,100016.16
2018-01-19T20:35:37.514Z,100019.05
2018-01-19T20:38:06.437Z,100024.45
2018-01-19T20:40:36.103Z,100023.58
2018-01-19T20:43:05.071Z,100026.64
2018-01-19T20:45:33.992Z,100029.05
2018-01-19T20:48:02.856Z,100022.41
2018-01-19T20:50:32.441Z,100020.61
2018-01-19T20:53:01.285Z,100019.30
2018-01-19T20:55:30.996Z,100022.27
2018-01-19T20:58:00.536Z,100019.03
2018-01-19T21:00:30.342Z,100030.09
2018-01-19T21:03:00.318Z,100031.45
2018-01-19T21:05:30.848Z,100029.80
2018-01-19T21:07:59.809Z,100027.84
2018-01-19T21:10:28.923Z,100028.03
2018-01-19T21:12:57.654Z,100026.09
2018-01-19T21:15:26.550Z,100036.87
2018-01-19T21:17:55.508Z,100032.83
2018-01-19T21:20:25.346Z,100035.49
2018-01-19T21:22:54.247Z,100042.97
2018-01-19T21:25:22.928Z,100042.20
2018-01-19T21:27:51.903Z,100037.56
2018-01-19T21:30:20.018Z,100035.74
2018-01-19T21:32:49.173Z,100031.52
2018-01-19T21:35:20.153Z,100035.19
2018-01-19T21:37:49.794Z,100040.47
2018-01-19T21:40:17.819Z,100037.73
2018-01-19T21:42:46.475Z,100037.13
2018-01-19T21:45:13.792Z,100039.88
2018-01-19T21:47:41.226Z,100039.48
2018-01-19T21:50:08.257Z,100038.61
2018-01-19T21:52:35.638Z,100037.36
2018-01-19T21:55:02.653Z,100040.55
2018-01-19T21:57:29.723Z,100034.95
2018-01-19T21:59:57.143Z,100036.61
2018-01-19T22:02:40.597Z,100033.14
2018-01-19T22:05:19.757Z,100041.52
2018-01-19T22:07:47.584Z,100042.64
2018-01-19T22:10:16.704Z,100048.80
2018-01-19T22:12:44.869Z,100052.66
2018-01-19T22:15:11.712Z,100050.92
2018-01-19T22:17:43.284Z,100057.33
2018-01-19T22:20:10.266Z,100051.48
2018-01-19T22:22:37.133Z,100055.88
2018-01-19T22:25:04.022Z,100055.09
2018-01-19T22:27:31.303Z,100054.33
2018-01-19T22:29:58.266Z,100052.91
2018-01-19T22:32:25.151Z,100050.17
2018-01-19T22:34:52.973Z,100051.29
2018-01-19T22:37:20.024Z,100054.23
2018-01-19T22:39:47.038Z,100049.51
2018-01-19T22:42:14.023Z,100052.05
2018-01-19T22:44:40.992Z,100049.55
2018-01-19T22:47:07.943Z,100048.62
2018-01-19T22:49:35.003Z,100049.11
2018-01-19T22:52:02.094Z,100050.41
2018-01-19T22:54:30.694Z,100043.46
2018-01-19T22:56:58.204Z,100045.02
2018-01-19T22:59:26.701Z,100045.32
2018-01-19T23:01:53.795Z,100039.19
2018-01-19T23:04:21.555Z,100041.61
2018-01-19T23:06:49.725Z,100050.97
2018-01-19T23:09:16.851Z,100052.59
2018-01-19T23:11:44.903Z,100055.70
2018-01-19T23:14:12.283Z,100055.09
2018-01-19T23:16:39.855Z,100055.84
2018-01-19T23:19:07.119Z,100061.99
2018-01-19T23:21:34.149Z,100056.71
2018-01-19T23:24:01.319Z,100062.36
2018-01-19T23:26:29.255Z,100058.26
2018-01-19T23:28:56.870Z,100058.63
2018-01-19T23:31:23.705Z,100050.19
2018-01-19T23:33:50.612Z,100049.80
2018-01-19T23:36:18.135Z,100053.30
2018-01-19T23:38:45.206Z,100055.09
2018-01-19T23:41:12.126Z,100048.07
2018-01-19T23:43:44.678Z,100058.36
2018-01-19T23:46:12.569Z,100065.66
2018-01-19T23:48:42.734Z,100056.81
2018-01-19T23:51:10.513Z,100057.11
2018-01-19T23:53:37.510Z,100050.92
2018-01-19T23:56:08.135Z,100058.73
2018-01-19T23:58:35.203Z,100050.84
